Time;durP1;ratioP1;P1;durP2;ratioP2;P2;SDS_P1;SDS_P2;PMS_P1;PMS_P2;Temp;Humidity;BMP_temperature;BMP_pressure;BME280_temperature;BME280_humidity;BME280_pressure;Samples;Min_cycle;Max_cycle;Signal;HPM_P1;HPM_P2
2023/04/06 00:01:30;;;;;;;6.77;4.77;;;0.00;99.90;;;;;;6214971;23;20423;-85
2023/04/06 00:03:56;;;;;;;6.95;4.97;;;0.00;99.90;;;;;;6214648;23;20354;-84
2023/04/06 00:06:25;;;;;;;5.90;5.03;;;-0.10;99.90;;;;;;6215085;23;20350;-85
2023/04/06 00:08:50;;;;;;;6.47;4.65;;;-0.20;99.90;;;;;;6187108;23;20374;-84
2023/04/06 00:11:16;;;;;;;6.60;4.57;;;-0.20;99.90;;;;;;6186857;23;20369;-84
2023/04/06 00:13:42;;;;;;;7.05;5.05;;;-0.20;99.90;;;;;;6187688;23;20360;-84
2023/04/06 00:16:08;;;;;;;7.85;4.63;;;-0.20;99.90;;;;;;6187581;23;20354;-86
2023/04/06 00:18:33;;;;;;;7.40;5.18;;;-0.30;99.90;;;;;;6213914;23;20712;-84
2023/04/06 00:20:59;;;;;;;8.02;4.93;;;-0.40;99.90;;;;;;6187356;23;20346;-85
2023/04/06 00:23:25;;;;;;;5.95;4.60;;;-0.40;99.90;;;;;;6213988;23;20366;-84
2023/04/06 00:25:50;;;;;;;5.70;4.68;;;-0.40;99.90;;;;;;6214421;23;20346;-85
2023/04/06 00:28:16;;;;;;;5.50;4.50;;;-0.40;99.90;;;;;;6213842;23;20716;-85
2023/04/06 00:30:42;;;;;;;5.40;4.35;;;-0.20;99.90;;;;;;6187277;23;20358;-85
2023/04/06 00:33:08;;;;;;;6.95;4.55;;;-0.30;99.90;;;;;;6187192;23;20404;-85
2023/04/06 00:35:34;;;;;;;8.33;4.70;;;-0.30;99.90;;;;;;6213821;23;20817;-84
2023/04/06 00:38:00;;;;;;;6.35;4.55;;;-0.40;99.90;;;;;;6187021;23;20354;-83
2023/04/06 00:40:28;;;;;;;7.35;4.55;;;-0.40;99.90;;;;;;6187548;23;20362;-85
2023/04/06 00:42:54;;;;;;;6.40;4.80;;;-0.50;99.90;;;;;;6187118;23;20377;-83
2023/04/06 00:45:20;;;;;;;7.18;4.85;;;-0.60;99.90;;;;;;6214133;23;20884;-84
2023/04/06 00:47:49;;;;;;;5.17;4.60;;;-0.60;99.90;;;;;;6213751;23;20382;-84
2023/04/06 00:50:15;;;;;;;7.47;4.75;;;-0.70;99.90;;;;;;6213846;23;20339;-84
2023/04/06 00:52:41;;;;;;;7.75;5.20;;;-0.70;99.90;;;;;;6212742;23;20337;-84
2023/04/06 00:55:07;;;;;;;6.40;5.03;;;-0.70;99.90;;;;;;6213756;23;20369;-84
2023/04/06 00:57:32;;;;;;;6.47;5.20;;;-0.80;99.90;;;;;;6213666;23;20347;-84
2023/04/06 00:59:58;;;;;;;7.38;5.07;;;-0.90;99.90;;;;;;6213411;23;20334;-84
2023/04/06 01:02:25;;;;;;;6.03;5.05;;;-0.90;99.90;;;;;;6186949;23;20378;-84
2023/04/06 01:04:52;;;;;;;7.30;5.53;;;-0.90;99.90;;;;;;6187233;23;20341;-84
2023/04/06 01:07:18;;;;;;;6.20;5.23;;;-0.90;99.90;;;;;;6213701;23;20643;-84
2023/04/06 01:09:43;;;;;;;7.30;5.27;;;-1.00;99.90;;;;;;6187413;23;20354;-85
2023/04/06 01:12:09;;;;;;;6.77;5.50;;;-1.00;99.90;;;;;;6213803;23;20405;-85
2023/04/06 01:14:35;;;;;;;6.47;5.40;;;-0.90;99.90;;;;;;6187349;23;20373;-84
2023/04/06 01:17:00;;;;;;;6.78;5.75;;;-1.00;99.90;;;;;;6187033;23;20377;-84
2023/04/06 01:19:27;;;;;;;7.13;5.47;;;-1.10;99.90;;;;;;6187103;23;20361;-85
2023/04/06 01:21:53;;;;;;;8.17;5.87;;;-1.20;99.90;;;;;;6213834;23;20373;-84
2023/04/06 01:24:19;;;;;;;9.07;6.35;;;-1.10;99.90;;;;;;6187885;23;20481;-83
2023/04/06 01:26:45;;;;;;;7.18;6.18;;;-1.10;99.90;;;;;;6187959;23;20789;-84
2023/04/06 01:29:11;;;;;;;8.63;6.03;;;-1.20;99.90;;;;;;6214631;23;20345;-84
2023/04/06 01:31:37;;;;;;;8.97;6.30;;;-1.20;99.90;;;;;;6189029;23;20840;-85
2023/04/06 01:34:02;;;;;;;7.32;5.63;;;-1.20;99.90;;;;;;6214783;23;20346;-84
2023/04/06 01:36:28;;;;;;;8.15;5.68;;;-1.10;99.90;;;;;;6188438;23;20385;-83
2023/04/06 01:38:54;;;;;;;7.50;5.67;;;-1.30;99.90;;;;;;6189058;23;20357;-83
2023/04/06 01:41:20;;;;;;;9.47;5.67;;;-1.30;99.90;;;;;;6189677;23;20372;-83
2023/04/06 01:43:48;;;;;;;7.72;5.72;;;-1.30;99.90;;;;;;6190140;23;20357;-84
2023/04/06 01:46:14;;;;;;;7.50;5.97;;;-1.40;99.90;;;;;;6217745;23;20414;-83
2023/04/06 01:48:39;;;;;;;5.97;5.20;;;-1.50;99.90;;;;;;6188932;23;20350;-83
2023/04/06 01:51:06;;;;;;;7.70;5.75;;;-1.50;99.90;;;;;;6214622;23;20334;-83
2023/04/06 01:53:31;;;;;;;7.20;5.55;;;-1.40;99.90;;;;;;6215451;23;20343;-84
2023/04/06 01:55:57;;;;;;;7.90;6.13;;;-1.40;99.90;;;;;;6214922;23;20844;-83
2023/04/06 01:58:23;;;;;;;7.77;5.97;;;-1.30;99.90;;;;;;6214693;23;20346;-83
2023/04/06 02:00:49;;;;;;;8.20;6.13;;;-1.30;99.90;;;;;;6215331;23;20341;-83
2023/04/06 02:03:15;;;;;;;8.35;6.15;;;-1.40;99.90;;;;;;6188640;23;20477;-84
2023/04/06 02:05:46;;;;;;;8.27;6.35;;;-1.40;99.90;;;;;;6190350;23;20821;-83
2023/04/06 02:08:12;;;;;;;8.13;6.53;;;-1.40;99.90;;;;;;6217961;23;20377;-84
2023/04/06 02:10:37;;;;;;;7.53;5.80;;;-1.40;99.90;;;;;;6190402;23;20353;-84
2023/04/06 02:13:03;;;;;;;6.67;5.20;;;-1.40;99.90;;;;;;6191260;23;20357;-84
2023/04/06 02:15:29;;;;;;;7.40;6.18;;;-1.40;99.90;;;;;;6192135;23;20393;-83
2023/04/06 02:17:55;;;;;;;7.00;5.60;;;-1.50;99.90;;;;;;6217908;23;20393;-84
2023/04/06 02:20:20;;;;;;;7.30;6.30;;;-1.60;99.90;;;;;;6191103;23;20377;-84
2023/04/06 02:22:46;;;;;;;8.73;7.10;;;-1.70;99.90;;;;;;6218243;23;20797;-83
2023/04/06 02:25:12;;;;;;;7.82;6.40;;;-1.80;99.90;;;;;;6218446;23;20742;-83
2023/04/06 02:27:37;;;;;;;7.63;6.40;;;-1.90;99.90;;;;;;6218160;23;20344;-83
2023/04/06 02:30:06;;;;;;;7.43;6.63;;;-1.80;99.90;;;;;;6218433;23;20342;-83
2023/04/06 02:32:34;;;;;;;10.18;7.15;;;-1.80;99.90;;;;;;6217889;23;20789;-83
2023/04/06 02:35:00;;;;;;;11.10;8.10;;;-1.90;99.90;;;;;;6217541;23;20338;-84
2023/04/06 02:37:26;;;;;;;8.30;7.17;;;-2.00;99.90;;;;;;6190718;23;20604;-83
2023/04/06 02:39:54;;;;;;;8.27;6.90;;;-2.00;99.90;;;;;;6189976;23;20832;-83
2023/04/06 02:42:20;;;;;;;8.20;6.50;;;-1.90;99.90;;;;;;6189602;23;20692;-83
2023/04/06 02:44:48;;;;;;;8.63;7.03;;;-1.90;99.90;;;;;;6217845;23;20428;-83
2023/04/06 02:47:16;;;;;;;9.77;6.43;;;-1.80;99.90;;;;;;6173648;23;20392;-82
2023/04/06 02:49:42;;;;;;;8.32;6.90;;;-1.90;99.90;;;;;;6228839;23;20422;-83
2023/04/06 02:52:08;;;;;;;8.48;6.97;;;-2.00;99.90;;;;;;6228268;23;20342;-83
2023/04/06 02:54:34;;;;;;;9.65;7.22;;;-2.00;99.90;;;;;;6217602;23;20346;-83
2023/04/06 02:57:00;;;;;;;8.18;6.68;;;-1.90;99.90;;;;;;6188462;23;20413;-83
2023/04/06 02:59:26;;;;;;;10.95;7.07;;;-1.90;99.90;;;;;;6188778;23;20895;-83
2023/04/06 03:01:54;;;;;;;11.32;7.40;;;-1.90;99.90;;;;;;6192801;23;20378;-82
2023/04/06 03:04:25;;;;;;;9.75;7.45;;;-2.00;99.90;;;;;;6189425;23;20350;-83
2023/04/06 03:06:51;;;;;;;10.35;7.30;;;-2.10;99.90;;;;;;6188847;23;20377;-83
2023/04/06 03:09:16;;;;;;;14.20;6.93;;;-2.10;99.90;;;;;;6215940;23;20797;-83
2023/04/06 03:11:42;;;;;;;10.83;6.50;;;-2.10;99.90;;;;;;6189110;23;20437;-83
2023/04/06 03:14:11;;;;;;;12.30;7.00;;;-2.00;99.90;;;;;;6215174;23;20347;-83
2023/04/06 03:16:37;;;;;;;8.55;6.88;;;-2.00;99.90;;;;;;6188465;23;20527;-83
2023/04/06 03:19:03;;;;;;;8.37;6.90;;;-2.10;99.90;;;;;;6215451;23;20346;-83
2023/04/06 03:21:29;;;;;;;8.77;6.83;;;-2.10;99.90;;;;;;6188680;23;20650;-83
2023/04/06 03:23:54;;;;;;;10.35;7.03;;;-2.00;99.90;;;;;;6188733;23;20755;-83
2023/04/06 03:26:22;;;;;;;9.82;7.28;;;-2.10;99.90;;;;;;6215354;23;20354;-83
2023/04/06 03:28:50;;;;;;;8.07;7.13;;;-2.10;99.90;;;;;;6215259;23;20434;-83
2023/04/06 03:31:15;;;;;;;9.15;7.22;;;-2.20;99.90;;;;;;6188215;23;20442;-83
2023/04/06 03:33:41;;;;;;;10.80;6.83;;;-2.20;99.90;;;;;;6188345;23;20377;-83
2023/04/06 03:36:13;;;;;;;10.02;7.60;;;-2.20;99.90;;;;;;6187856;23;20353;-83
2023/04/06 03:38:38;;;;;;;11.23;7.95;;;-2.40;99.90;;;;;;6188351;23;20375;-83
2023/04/06 03:41:04;;;;;;;8.77;7.65;;;-2.50;99.90;;;;;;6188486;23;20369;-83
2023/04/06 03:43:30;;;;;;;9.00;7.60;;;-2.50;99.90;;;;;;6188525;23;20370;-83
2023/04/06 03:45:56;;;;;;;9.75;7.63;;;-2.50;99.90;;;;;;6188156;23;20647;-83
2023/04/06 03:48:21;;;;;;;8.88;7.50;;;-2.50;99.90;;;;;;6187984;23;20354;-83
2023/04/06 03:50:47;;;;;;;10.77;8.07;;;-2.50;99.90;;;;;;6188677;23;20421;-83
2023/04/06 03:53:13;;;;;;;9.87;7.23;;;-2.50;99.90;;;;;;6188431;23;20350;-83
2023/04/06 03:55:42;;;;;;;7.67;6.87;;;-2.50;99.90;;;;;;6188662;23;20380;-83
2023/04/06 03:58:08;;;;;;;9.27;7.82;;;-2.50;99.90;;;;;;6188020;23;20474;-83
2023/04/06 04:00:36;;;;;;;10.00;7.40;;;-2.60;99.90;;;;;;6188928;23;20354;-83
2023/04/06 04:03:04;;;;;;;10.90;8.13;;;-2.60;99.90;;;;;;6188507;23;20428;-83
2023/04/06 04:05:29;;;;;;;10.85;8.77;;;-2.60;99.90;;;;;;6188722;23;20353;-83
2023/04/06 04:07:57;;;;;;;10.70;8.60;;;-2.70;99.90;;;;;;6188414;23;20355;-83
2023/04/06 04:10:32;;;;;;;12.07;9.45;;;-2.70;99.90;;;;;;6215285;23;20357;-83
2023/04/06 04:13:03;;;;;;;12.18;9.07;;;-2.80;99.90;;;;;;6188904;23;20342;-83
2023/04/06 04:15:28;;;;;;;15.63;10.02;;;-2.80;99.90;;;;;;6188516;23;20397;-83
2023/04/06 04:17:55;;;;;;;11.90;9.93;;;-2.90;99.90;;;;;;6192860;23;20358;-83
2023/04/06 04:20:24;;;;;;;11.53;9.80;;;-2.90;99.90;;;;;;6190355;23;20437;-83
2023/04/06 04:22:49;;;;;;;11.15;10.00;;;-3.00;99.90;;;;;;6190592;23;20397;-83
2023/04/06 04:25:20;;;;;;;12.40;10.70;;;-3.00;99.90;;;;;;6192279;23;20354;-84
2023/04/06 04:27:46;;;;;;;12.68;10.52;;;-3.10;99.90;;;;;;6191773;23;20368;-83
2023/04/06 04:30:12;;;;;;;13.98;10.30;;;-3.10;99.90;;;;;;6223954;23;20369;-84
2023/04/06 04:32:38;;;;;;;13.40;10.73;;;-3.10;99.90;;;;;;6195015;23;20342;-84
2023/04/06 04:35:03;;;;;;;19.05;11.10;;;-3.00;99.90;;;;;;6195387;23;20461;-84
2023/04/06 04:37:29;;;;;;;13.88;11.00;;;-3.00;99.90;;;;;;6215645;23;20793;-84
2023/04/06 04:39:55;;;;;;;14.23;11.40;;;-3.00;99.90;;;;;;6189442;23;20358;-84
2023/04/06 04:42:25;;;;;;;14.40;11.50;;;-3.00;99.90;;;;;;6216163;23;20397;-84
2023/04/06 04:44:51;;;;;;;15.30;11.63;;;-3.10;99.90;;;;;;6215924;23;20404;-84
2023/04/06 04:47:30;;;;;;;13.20;11.80;;;-3.10;99.90;;;;;;6189183;23;20358;-84
2023/04/06 04:49:56;;;;;;;15.10;12.20;;;-3.10;99.90;;;;;;6215763;23;20346;-85
2023/04/06 04:52:22;;;;;;;14.73;11.70;;;-3.10;99.90;;;;;;6189041;23;20347;-85
2023/04/06 04:54:48;;;;;;;12.52;11.23;;;-3.10;99.90;;;;;;6189358;23;20358;-84
2023/04/06 04:57:14;;;;;;;14.07;11.32;;;-3.00;99.90;;;;;;6189610;23;20749;-86
2023/04/06 04:59:45;;;;;;;13.55;11.18;;;-3.00;99.90;;;;;;6189733;23;20408;-85
2023/04/06 05:02:11;;;;;;;13.02;10.75;;;-2.90;99.90;;;;;;6189019;23;20365;-85
2023/04/06 05:04:39;;;;;;;18.63;13.85;;;-2.90;99.90;;;;;;6215931;23;20346;-85
2023/04/06 05:07:08;;;;;;;55.67;17.65;;;-2.80;99.90;;;;;;6216921;23;20392;-85
2023/04/06 05:09:34;;;;;;;25.83;19.60;;;-2.80;99.90;;;;;;6189220;23;20408;-85
2023/04/06 05:12:03;;;;;;;29.13;19.77;;;-2.80;99.90;;;;;;6189865;23;20647;-85
2023/04/06 05:14:31;;;;;;;28.25;22.02;;;-2.70;99.90;;;;;;6189483;23;20437;-85
2023/04/06 05:16:57;;;;;;;18.50;15.38;;;-2.70;99.90;;;;;;6189044;23;20353;-85
2023/04/06 05:19:23;;;;;;;18.97;14.40;;;-2.60;99.90;;;;;;6187930;23;20456;-85
2023/04/06 05:21:49;;;;;;;16.33;12.67;;;-2.50;99.90;;;;;;6188345;23;20357;-85
2023/04/06 05:24:17;;;;;;;15.98;12.98;;;-2.40;99.90;;;;;;6189329;23;20698;-85
2023/04/06 05:26:48;;;;;;;44.40;34.28;;;-2.30;99.90;;;;;;6188295;23;20687;-85
2023/04/06 05:29:17;;;;;;;89.90;67.90;;;-2.20;99.90;;;;;;6188711;23;20350;-85
2023/04/06 05:31:45;;;;;;;91.83;74.87;;;-2.20;99.90;;;;;;6189318;23;20391;-85
2023/04/06 05:34:18;;;;;;;100.43;79.57;;;-1.90;99.90;;;;;;6216283;23;20421;-85
2023/04/06 05:36:48;;;;;;;64.53;54.35;;;-1.70;99.90;;;;;;6188855;23;20506;-85
2023/04/06 05:39:17;;;;;;;60.70;48.53;;;-1.20;99.90;;;;;;6197141;23;20372;-85
2023/04/06 05:41:43;;;;;;;44.92;37.63;;;-0.60;99.90;;;;;;6222185;23;20366;-83
2023/04/06 05:44:12;;;;;;;37.17;32.87;;;-0.60;99.90;;;;;;6193765;23;20373;-84
2023/04/06 05:46:39;;;;;;;33.20;28.75;;;-0.50;99.90;;;;;;6194765;23;20353;-84
2023/04/06 05:49:05;;;;;;;23.45;20.85;;;0.00;99.90;;;;;;6191292;23;20346;-84
2023/04/06 05:51:37;;;;;;;21.17;18.80;;;1.00;99.90;;;;;;6219975;23;20392;-83
2023/04/06 05:54:07;;;;;;;19.42;17.15;;;1.10;99.90;;;;;;6219563;23;20686;-84
2023/04/06 05:56:35;;;;;;;13.77;11.57;;;1.10;99.90;;;;;;6194473;23;20357;-84
2023/04/06 05:59:01;;;;;;;11.45;9.07;;;1.30;99.90;;;;;;6219408;23;20345;-84
2023/04/06 06:01:31;;;;;;;11.00;8.82;;;1.50;99.90;;;;;;6194814;23;20354;-84
2023/04/06 06:04:03;;;;;;;11.20;8.70;;;1.90;99.90;;;;;;6193066;23;20373;-84
2023/04/06 06:06:36;;;;;;;10.20;9.13;;;2.10;99.90;;;;;;6194859;23;20353;-84
2023/04/06 06:09:03;;;;;;;12.05;7.88;;;2.20;99.90;;;;;;6219376;23;20808;-84
2023/04/06 06:11:29;;;;;;;10.82;7.63;;;2.40;99.90;;;;;;6192082;23;20346;-86
2023/04/06 06:13:56;;;;;;;10.67;8.20;;;2.60;99.90;;;;;;6191994;23;20354;-87
2023/04/06 06:16:22;;;;;;;8.90;7.35;;;2.80;99.90;;;;;;6190915;23;20360;-83
2023/04/06 06:18:47;;;;;;;9.85;7.55;;;3.00;99.90;;;;;;6217261;23;20346;-84
2023/04/06 06:21:13;;;;;;;10.05;8.05;;;3.10;99.90;;;;;;6220319;23;20797;-84
2023/04/06 06:23:39;;;;;;;9.32;7.50;;;3.10;99.90;;;;;;6191544;23;20380;-84
2023/04/06 06:26:05;;;;;;;10.23;7.57;;;3.40;99.90;;;;;;6218570;23;20359;-85
2023/04/06 06:28:31;;;;;;;22.60;15.13;;;3.60;99.90;;;;;;6217381;23;20346;-85
2023/04/06 06:30:56;;;;;;;12.30;9.63;;;3.90;99.90;;;;;;6218206;23;20440;-84
2023/04/06 06:33:22;;;;;;;8.57;7.67;;;4.10;99.90;;;;;;6218787;23;20790;-83
2023/04/06 06:35:48;;;;;;;9.13;7.20;;;4.50;99.90;;;;;;6190670;23;20353;-84
2023/04/06 06:38:14;;;;;;;10.13;6.95;;;4.90;99.90;;;;;;6218913;23;20345;-83
2023/04/06 06:40:41;;;;;;;6.77;6.07;;;5.90;99.90;;;;;;6231729;23;20413;-81
2023/04/06 06:43:09;;;;;;;6.43;5.70;;;6.70;99.90;;;;;;6210148;23;20371;-83
2023/04/06 06:45:35;;;;;;;9.02;5.80;;;8.20;99.90;;;;;;6210809;23;20349;-83
2023/04/06 06:48:00;;;;;;;8.13;5.80;;;9.20;99.90;;;;;;6237085;23;20430;-81
2023/04/06 06:50:26;;;;;;;17.23;6.40;;;10.30;99.90;;;;;;6232571;23;20733;-85
2023/04/06 06:52:52;;;;;;;7.70;5.75;;;10.60;99.90;;;;;;6192727;23;20354;-84
2023/04/06 06:55:19;;;;;;;9.40;5.70;;;11.40;99.90;;;;;;6218353;23;20427;-84
2023/04/06 06:57:46;;;;;;;9.00;5.80;;;12.00;99.90;;;;;;6192337;23;20350;-84
2023/04/06 07:00:13;;;;;;;7.53;5.60;;;11.20;99.90;;;;;;6218029;23;20342;-84
2023/04/06 07:02:38;;;;;;;24.13;6.30;;;12.10;99.90;;;;;;6219370;23;20853;-85
2023/04/06 07:05:05;;;;;;;7.85;5.40;;;12.90;99.90;;;;;;6216298;23;20369;-85
2023/04/06 07:07:32;;;;;;;12.02;5.55;;;12.90;99.90;;;;;;6218265;23;20346;-84
2023/04/06 07:09:57;;;;;;;6.82;4.90;;;14.00;99.90;;;;;;6219473;23;20396;-85
2023/04/06 07:12:23;;;;;;;6.53;4.90;;;15.30;97.70;;;;;;6190078;23;20709;-86
2023/04/06 07:14:49;;;;;;;9.18;4.93;;;16.00;97.70;;;;;;6191708;23;20338;-85
2023/04/06 07:17:14;;;;;;;9.00;4.73;;;17.80;94.90;;;;;;6216565;23;20350;-85
2023/04/06 07:19:40;;;;;;;6.80;4.38;;;16.80;93.30;;;;;;6217113;23;20481;-85
2023/04/06 07:22:06;;;;;;;7.20;4.80;;;16.90;94.50;;;;;;6217938;23;20409;-85
2023/04/06 07:24:32;;;;;;;5.97;4.22;;;;;;;;;;6217812;23;20350;-84
2023/04/06 07:27:00;;;;;;;8.27;4.40;;;17.20;92.90;;;;;;6221054;23;20342;-85
2023/04/06 07:29:26;;;;;;;5.60;4.75;;;17.50;93.20;;;;;;6188996;23;20677;-86
2023/04/06 07:31:52;;;;;;;8.60;4.73;;;16.90;92.30;;;;;;6189644;23;20370;-85
2023/04/06 07:34:18;;;;;;;6.53;3.88;;;17.70;91.10;;;;;;6215681;23;20360;-85
2023/04/06 07:36:44;;;;;;;7.07;4.23;;;16.70;90.20;;;;;;6217807;23;20338;-84
2023/04/06 07:39:10;;;;;;;8.95;4.65;;;15.40;93.60;;;;;;6190952;23;20848;-85
2023/04/06 07:41:36;;;;;;;6.60;4.00;;;15.90;92.50;;;;;;6189514;23;20719;-85
2023/04/06 07:44:01;;;;;;;5.45;4.20;;;16.00;92.50;;;;;;6215965;23;20350;-85
2023/04/06 07:46:27;;;;;;;8.27;4.40;;;17.20;91.30;;;;;;6216437;23;20437;-84
2023/04/06 07:48:53;;;;;;;5.30;3.90;;;17.30;90.80;;;;;;6215773;23;20350;-85
2023/04/06 07:51:18;;;;;;;7.13;4.30;;;17.20;90.20;;;;;;6217630;23;20344;-85
2023/04/06 07:53:45;;;;;;;5.00;3.53;;;17.10;90.70;;;;;;6189315;23;20393;-84
2023/04/06 07:56:11;;;;;;;9.70;4.18;;;17.70;90.20;;;;;;6215976;23;20342;-84
2023/04/06 07:58:37;;;;;;;4.97;3.45;;;16.90;90.80;;;;;;6219380;23;20361;-84
2023/04/06 08:01:03;;;;;;;8.80;3.42;;;17.50;89.70;;;;;;6215630;23;20416;-84
2023/04/06 08:03:29;;;;;;;5.22;3.00;;;17.30;88.60;;;;;;6216396;23;20396;-84
2023/04/06 08:05:55;;;;;;;5.30;3.30;;;16.30;90.20;;;;;;6215835;23;20342;-83
2023/04/06 08:08:21;;;;;;;5.95;3.72;;;16.60;90.20;;;;;;6190687;23;20429;-84
2023/04/06 08:10:48;;;;;;;13.93;3.95;;;15.40;91.40;;;;;;6217141;23;20349;-84
2023/04/06 08:13:14;;;;;;;4.32;2.90;;;16.20;89.50;;;;;;6217196;23;20376;-84
2023/04/06 08:15:40;;;;;;;10.57;3.47;;;16.30;89.80;;;;;;6215975;23;20420;-84
2023/04/06 08:18:05;;;;;;;6.18;3.40;;;16.80;87.60;;;;;;6217088;23;20431;-83
2023/04/06 08:20:31;;;;;;;5.90;3.23;;;16.00;88.60;;;;;;6216127;23;20338;-84
2023/04/06 08:22:56;;;;;;;4.65;3.20;;;15.50;91.00;;;;;;6217942;23;20813;-84
2023/04/06 08:25:22;;;;;;;5.00;3.13;;;16.20;88.60;;;;;;6217376;23;20458;-82
2023/04/06 08:27:48;;;;;;;5.33;2.97;;;15.70;88.00;;;;;;6215251;23;20353;-83
2023/04/06 08:30:15;;;;;;;4.57;3.25;;;15.00;90.40;;;;;;6214690;23;20342;-83
2023/04/06 08:32:41;;;;;;;4.90;3.17;;;16.00;89.70;;;;;;6217691;23;20354;-83
2023/04/06 08:35:07;;;;;;;4.55;2.72;;;15.60;90.10;;;;;;6218216;23;20412;-83
2023/04/06 08:37:33;;;;;;;4.15;2.80;;;16.40;88.20;;;;;;6192145;23;20350;-84
2023/04/06 08:39:59;;;;;;;3.20;2.40;;;15.70;86.90;;;;;;6215411;23;20353;-84
2023/04/06 08:42:26;;;;;;;4.15;2.50;;;15.70;86.30;;;;;;6216081;23;20810;-83
2023/04/06 08:44:52;;;;;;;4.00;2.42;;;16.10;83.40;;;;;;6214670;23;20350;-83
2023/04/06 08:47:18;;;;;;;3.13;1.90;;;16.10;82.60;;;;;;6187923;23;20436;-83
2023/04/06 08:49:45;;;;;;;4.07;2.97;;;16.30;82.50;;;;;;6214306;23;20373;-83
2023/04/06 08:52:11;;;;;;;4.35;2.72;;;16.10;82.70;;;;;;6187311;23;20380;-83
2023/04/06 08:54:37;;;;;;;5.15;2.63;;;15.70;85.20;;;;;;6214519;23;20377;-84
2023/04/06 08:57:04;;;;;;;3.83;2.35;;;15.10;87.80;;;;;;6215458;23;20338;-84
2023/04/06 08:59:30;;;;;;;4.97;2.53;;;15.40;86.20;;;;;;6216898;23;20908;-83
2023/04/06 09:01:56;;;;;;;5.15;2.75;;;15.80;83.30;;;;;;6188308;23;20350;-82
2023/04/06 09:04:22;;;;;;;43.92;6.40;;;14.90;83.10;;;;;;6215077;23;20421;-84
2023/04/06 09:06:47;;;;;;;4.75;2.60;;;14.90;83.70;;;;;;6189519;23;20484;-83
2023/04/06 09:09:13;;;;;;;7.10;2.60;;;14.60;83.40;;;;;;6216005;23;20346;-84
2023/04/06 09:11:50;;;;;;;22.52;3.78;;;13.90;84.20;;;;;;6216297;23;20365;-84
2023/04/06 09:14:16;;;;;;;3.10;2.42;;;13.40;85.50;;;;;;6217275;23;20349;-84
2023/04/06 09:16:44;;;;;;;4.05;2.75;;;14.00;86.40;;;;;;6217715;23;20342;-82
2023/04/06 09:19:11;;;;;;;4.63;3.08;;;15.30;84.20;;;;;;6190917;23;20412;-84
2023/04/06 09:21:37;;;;;;;8.18;2.83;;;15.10;82.00;;;;;;6217291;23;20403;-83
2023/04/06 09:24:03;;;;;;;3.25;2.67;;;15.20;82.80;;;;;;6217476;23;20806;-84
2023/04/06 09:26:29;;;;;;;5.72;3.25;;;15.10;81.20;;;;;;6192026;23;20444;-84
2023/04/06 09:28:59;;;;;;;4.20;2.97;;;13.90;85.10;;;;;;6192621;23;20354;-83
2023/04/06 09:31:26;;;;;;;13.50;3.50;;;13.40;85.10;;;;;;6221588;23;20369;-84
2023/04/06 09:33:53;;;;;;;3.97;2.88;;;13.90;88.00;;;;;;6220863;23;20372;-84
2023/04/06 09:36:20;;;;;;;3.50;2.75;;;;;;;;;;6220941;23;20346;-84
2023/04/06 09:38:54;;;;;;;8.10;3.10;;;;;;;;;;6196993;23;20387;-84
2023/04/06 09:41:27;;;;;;;4.73;3.50;;;;;;;;;;6223565;23;20404;-83
2023/04/06 09:44:14;;;;;;;8.48;3.55;;;;;;;;;;6201333;23;20357;-84
2023/04/06 09:46:40;;;;;;;4.18;3.40;;;;;;;;;;6208403;23;20330;-84
2023/04/06 09:49:07;;;;;;;4.45;2.90;;;;;;;;;;6191620;23;20372;-83
2023/04/06 09:51:37;;;;;;;4.33;3.00;;;;;;;;;;6218866;23;20380;-84
2023/04/06 09:54:04;;;;;;;3.78;3.22;;;;;;;;;;6219017;23;20338;-82
2023/04/06 09:56:45;;;;;;;4.53;3.33;;;;;;;;;;6193641;23;20346;-84
2023/04/06 09:59:19;;;;;;;3.30;2.92;;;;;;;;;;6218551;23;20349;-84
2023/04/06 10:01:47;;;;;;;12.57;3.72;;;;;;;;;;6191088;23;20361;-83
2023/04/06 10:04:26;;;;;;;12.23;3.83;;;;;;;;;;6220129;23;20653;-82
2023/04/06 10:06:52;;;;;;;4.15;2.90;;;;;;;;;;6195520;23;20354;-83
2023/04/06 10:09:19;;;;;;;5.30;2.95;;;;;;;;;;6219279;23;20369;-83
2023/04/06 10:11:45;;;;;;;4.57;2.95;;;;;;;;;;6220773;23;20398;-84
2023/04/06 10:14:11;;;;;;;3.45;2.78;;;;;;;;;;6220100;23;20397;-84
2023/04/06 10:16:37;;;;;;;6.63;3.40;;;;;;;;;;6217816;23;20342;-83
2023/04/06 10:19:13;;;;;;;3.90;3.00;;;;;;;;;;6192329;23;20346;-82
2023/04/06 10:21:39;;;;;;;4.93;3.23;;;;;;;;;;6218637;23;20361;-82
2023/04/06 10:24:10;;;;;;;3.17;2.78;;;;;;;;;;6190891;23;20357;-83
2023/04/06 10:26:36;;;;;;;4.30;2.97;;;;;;;;;;6218047;23;20361;-83
2023/04/06 10:29:05;;;;;;;22.67;4.88;;;;;;;;;;6219908;23;20338;-82
2023/04/06 10:31:31;;;;;;;4.35;2.70;;;;;;;;;;6219800;23;20370;-84
2023/04/06 10:33:58;;;;;;;6.47;3.15;;;;;;;;;;6192361;23;20358;-83
2023/04/06 10:36:28;;;;;;;4.68;3.20;;;;;;;;;;6219647;23;20341;-83
2023/04/06 10:38:55;;;;;;;4.45;3.17;;;;;;;;;;6218654;23;20342;-83
2023/04/06 10:41:21;;;;;;;7.25;3.20;;;;;;;;;;6217957;23;20346;-83
2023/04/06 10:43:55;;;;;;;5.00;3.08;;;;;;;;;;6219485;23;20389;-83
2023/04/06 10:46:25;;;;;;;59.08;7.97;;;;;;;;;;6192738;23;20435;-83
2023/04/06 10:48:51;;;;;;;8.50;3.33;;;;;;;;;;6193122;23;20342;-82
2023/04/06 10:51:18;;;;;;;6.07;3.17;;;;;;;;;;6219967;23;20723;-84
2023/04/06 10:53:49;;;;;;;31.55;5.30;;;;;;;;;;6220783;23;20689;-81
2023/04/06 10:56:16;;;;;;;5.25;3.00;;;;;;;;;;6217591;23;20346;-83
2023/04/06 10:58:48;;;;;;;6.45;3.20;;;;;;;;;;6219911;23;20373;-81
2023/04/06 11:01:18;;;;;;;4.57;2.83;;;;;;;;;;6219269;23;20353;-82
2023/04/06 11:03:45;;;;;;;4.30;2.85;;;;;;;;;;6221310;23;20398;-82
2023/04/06 11:06:11;;;;;;;5.55;3.20;;;;;;;;;;6221817;23;20374;-83
2023/04/06 11:08:37;;;;;;;78.82;10.27;;;;;;;;;;6193550;23;20519;-84
2023/04/06 11:11:09;;;;;;;4.20;3.10;;;;;;;;;;6212086;23;20406;-84
2023/04/06 11:13:38;;;;;;;3.35;2.97;;;;;;;;;;6215603;23;20844;-83
2023/04/06 11:16:04;;;;;;;4.18;3.10;;;;;;;;;;6188043;23;20825;-83
2023/04/06 11:18:32;;;;;;;4.50;3.42;;;;;;;;;;6215457;23;20346;-84
2023/04/06 11:20:58;;;;;;;19.83;5.03;;;;;;;;;;6213689;23;20349;-82
2023/04/06 11:23:25;;;;;;;3.33;2.92;;;;;;;;;;6214864;23;20425;-82
2023/04/06 11:25:54;;;;;;;4.82;3.20;;;;;;;;;;6213491;23;20341;-82
2023/04/06 11:28:20;;;;;;;5.30;3.33;;;;;;;;;;6216450;23;20339;-83
2023/04/06 11:30:47;;;;;;;4.72;3.30;;;;;;;;;;6216564;23;20346;-82
2023/04/06 11:33:21;;;;;;;5.28;2.85;;;;;;;;;;6229453;23;20434;-83
2023/04/06 11:35:47;;;;;;;8.60;3.75;;;;;;;;;;6226762;23;20339;-83
2023/04/06 11:38:13;;;;;;;6.13;3.85;;;;;;;;;;6220833;23;20346;-83
2023/04/06 11:40:39;;;;;;;4.05;3.20;;;;;;;;;;6219142;23;20346;-83
2023/04/06 11:43:06;;;;;;;7.40;3.97;;;;;;;;;;6216254;23;20334;-83
2023/04/06 11:45:43;;;;;;;6.43;3.50;;;;;;;;;;6219426;23;20782;-83
2023/04/06 11:48:17;;;;;;;8.18;3.63;;;;;;;;;;6218042;23;20389;-83
2023/04/06 11:50:46;;;;;;;4.15;3.38;;;;;;;;;;6219028;23;20334;-84
2023/04/06 11:53:12;;;;;;;4.95;3.85;;;;;;;;;;6218986;23;20817;-83
2023/04/06 11:55:39;;;;;;;3.92;3.50;;;;;;;;;;6216402;23;20369;-83
2023/04/06 11:58:05;;;;;;;5.45;3.70;;;;;;;;;;6190542;23;20663;-83
2023/04/06 12:00:34;;;;;;;4.17;3.20;;;;;;;;;;6217851;23;20817;-83
2023/04/06 12:03:00;;;;;;;39.28;5.88;;;;;;;;;;6217138;23;20424;-82
2023/04/06 12:05:27;;;;;;;5.18;3.65;;;;;;;;;;6215049;23;20345;-83
2023/04/06 12:07:53;;;;;;;4.57;3.58;;;;;;;;;;6219170;23;20346;-83
2023/04/06 12:10:20;;;;;;;4.25;3.78;;;;;;;;;;6226382;23;20345;-83
2023/04/06 12:12:46;;;;;;;13.57;4.00;;;;;;;;;;6225698;23;20385;-83
2023/04/06 12:15:12;;;;;;;4.10;3.53;;;;;;;;;;6224761;23;20342;-82
2023/04/06 12:17:38;;;;;;;4.80;3.10;;;;;;;;;;6227360;23;20349;-83
2023/04/06 12:20:04;;;;;;;4.50;3.50;;;;;;;;;;6218534;23;20842;-83
2023/04/06 12:22:30;;;;;;;3.97;3.30;;;;;;;;;;6226478;23;20635;-83
2023/04/06 12:24:59;;;;;;;6.43;3.22;;;;;;;;;;6225775;23;20346;-85
2023/04/06 12:27:25;;;;;;;4.82;3.35;;;;;;;;;;6194556;23;20350;-83
2023/04/06 12:29:51;;;;;;;5.75;3.50;;;;;;;;;;6196294;23;20345;-83
2023/04/06 12:32:17;;;;;;;11.40;4.03;;;;;;;;;;6197398;23;20369;-82
2023/04/06 12:34:43;;;;;;;8.02;3.50;;;;;;;;;;6222723;23;20357;-82
2023/04/06 12:37:09;;;;;;;4.28;3.22;;;;;;;;;;6223355;23;20342;-84
2023/04/06 12:39:35;;;;;;;3.42;3.13;;;;;;;;;;6190675;23;20358;-84
2023/04/06 12:42:02;;;;;;;4.18;3.53;;;;;;;;;;6192408;23;20361;-84
2023/04/06 12:44:28;;;;;;;15.95;4.40;;;;;;;;;;6220947;23;20346;-84
2023/04/06 12:46:55;;;;;;;4.90;3.45;;;;;;;;;;6223528;23;20384;-84
2023/04/06 12:49:21;;;;;;;4.32;3.38;;;;;;;;;;6222232;23;20356;-84
2023/04/06 12:51:47;;;;;;;12.70;4.10;;;;;;;;;;6197920;23;20353;-84
2023/04/06 12:54:18;;;;;;;5.63;3.47;;;;;;;;;;6194011;23;20654;-84
2023/04/06 12:56:44;;;;;;;46.40;6.57;;;;;;;;;;6222391;23;20690;-83
2023/04/06 12:59:12;;;;;;;5.25;3.30;;;;;;;;;;6194472;23;20365;-84
2023/04/06 13:01:44;;;;;;;3.72;3.28;;;;;;;;;;6221595;23;20339;-84
2023/04/06 13:04:13;;;;;;;4.07;3.00;;;;;;;;;;6198223;23;20342;-84
2023/04/06 13:06:40;;;;;;;11.52;4.10;;;;;;;;;;6191482;23;20631;-84
2023/04/06 13:09:07;;;;;;;4.32;3.15;;;;;;;;;;6215986;23;20338;-84
2023/04/06 13:11:33;;;;;;;5.43;3.45;;;;;;;;;;6188423;23;20334;-84